This is the latest recevied weather packets stored in our database for station/object HG5CJW-10. If no packets are shown the sender has not sent any weather packets the latest 10 day(s).
| Time | Temp. | Humidity | Pressure | Rain* | Wind** | Luminosity | Snow |
|---|---|---|---|---|---|---|---|
| 1788640557 | 21.11° C | 52% | 1039.1 hPa | - | - | - | - |
| 1788639657 | 21.11° C | 52% | 1039 hPa | - | - | - | - |
| 1788638757 | 21.11° C | 51% | 1038.9 hPa | - | - | - | - |
| 1788636986 | 21.67° C | 51% | 1038.7 hPa | - | - | - | - |
| 1788633351 | 22.22° C | 50% | 1038.2 hPa | - | - | - | - |
| 1788631551 | 22.78° C | 48% | 1037.6 hPa | - | - | - | - |
| 1788630651 | 22.78° C | 48% | 1037.5 hPa | - | - | - | - |
| 1788629751 | 22.78° C | 48% | 1037.3 hPa | - | - | - | - |
| 1788628851 | 22.78° C | 48% | 1037.1 hPa | - | - | - | - |
| 1788627951 | 22.78° C | 46% | 1036.7 hPa | - | - | - | - |
| 1788622550 | 23.33° C | 40% | 1036.2 hPa | - | - | - | - |
| 1788620750 | 22.78° C | 39% | 1035.9 hPa | - | - | - | - |
| 1788617145 | 22.78° C | 42% | 1036.3 hPa | - | - | - | - |
| 1788612644 | 22.22° C | 55% | 1036.5 hPa | - | - | - | - |
| 1788611744 | 22.22° C | 58% | 1036.9 hPa | - | - | - | - |
| 1788610845 | 22.22° C | 59% | 1037 hPa | - | - | - | - |
| 1788609944 | 22.22° C | 60% | 1036.7 hPa | - | - | - | - |
| 1788609045 | 22.22° C | 65% | 1036.7 hPa | - | - | - | - |
| 1788608144 | 22.22° C | 69% | 1037.1 hPa | - | - | - | - |
| 1788607245 | 21.67° C | 69% | 1036.7 hPa | - | - | - | - |
| 1788606338 | 22.22° C | 68% | 1036.6 hPa | - | - | - | - |
| 1788605438 | 22.22° C | 68% | 1036.9 hPa | - | - | - | - |
| 1788604538 | 22.22° C | 68% | 1036.6 hPa | - | - | - | - |
| 1788603638 | 22.22° C | 67% | 1036.8 hPa | - | - | - | - |
| 1788602738 | 22.22° C | 66% | 1037 hPa | - | - | - | - |
* Rain since midnight (hover to see other rain measurements)
** Current wind speed in m/s (hover to see current wind gust speed)